Condiciones actuales en los principales Aeropuertos de España-Datos Metar

 

LEAL - Alicante
Actualización: 13/12/2017 19:30
Despejado
Despejado
 Viento del SSO
Viento: SSO 7 km/h
Temperatura: 10°C
Wind Chill: 9°C
Rocío: 0°C
Humedad: 50%
Barómetro: 1025 hPa
Resumen: Despejado
Visibilidad: greater than 10 km
2017/12/13 18:30 LEAL 131830Z 21004KT 160V250 CAVOK 10/00 Q1025 NOSIG
LEAB - Albacete
Actualización: 13/12/2017 19:00
Despejado
Despejado
 Viento del varies
Viento: varies 2 km/h
Temperatura: 4°C
Rocío: 0°C
Humedad: 75%
Barómetro: 1026 hPa
Resumen: Despejado
Visibilidad: greater than 10 km
2017/12/13 18:00 LEAB 131800Z VRB01KT CAVOK 04/M00 Q1026 NOSIG
LEAM - Almería
Actualización: 13/12/2017 19:30
Despejado
Despejado
 Viento del OSO
Viento: OSO 11 km/h
Temperatura: 13°C
Rocío: 8°C
Humedad: 72%
Barómetro: 1026 hPa
Resumen: Despejado
Visibilidad: greater than 10 km
2017/12/13 18:30 LEAM 131830Z 24006KT CAVOK 13/08 Q1026
 
LEAS - Asturias/Aviles
Actualización: 13/12/2017 19:30
Mostly Cloudy
Mostly Cloudy
 Viento del OSO
Viento: OSO 20 km/h
Temperatura: 15°C
Rocío: 11°C
Humedad: 77%
Barómetro: 1018 hPa
Nubosidad: Mostly Cloudy
Visibilidad: 10 km
Cloud details: Mostly Cloudy 1036 m
2017/12/13 18:30 LEAS 131830Z 25011KT 220V280 9999 BKN034 15/11 Q1018 NOSIG
LEBZ - Badajoz/Talavera la Real
Actualización: 13/12/2017 19:00
Mostly Cloudy
Mostly Cloudy
 Viento del calm
Viento: Calma
Temperatura: 12°C
Rocío: 8°C
Humedad: 77%
Barómetro: 1028 hPa
Nubosidad: Mostly Cloudy
Visibilidad: 10 km
Cloud details: Partly Cloudy 1219 m
Mostly Cloudy 1463 m
2017/12/13 18:00 LEBZ 131800Z 00000KT 9999 SCT040 BKN048 12/08 Q1028
LEBL - Barcelona
Actualización: 13/12/2017 19:30
Few Clouds
Few Clouds
 Viento del OSO
Viento: OSO 13 km/h
Temperatura: 11°C
Rocío: 1°C
Humedad: 50%
Barómetro: 1021 hPa
Nubosidad: Few Clouds
Visibilidad: 10 km
Cloud details: Few Clouds 1676 m
2017/12/13 18:30 LEBL 131830Z 25007KT 9999 FEW055 11/01 Q1021 NOSIG
 
LEBB - Bilbao
Actualización: 13/12/2017 19:30
Mostly Cloudy
Mostly Cloudy
 Viento del SO
Viento: SO 17 km/h, Racha: 41 km/h
Temperatura: 14°C
Rocío: 7°C
Humedad: 63%
Barómetro: 1018 hPa
Nubosidad: Mostly Cloudy
Visibilidad: 10 km
Cloud details: Few Clouds 1128 m
Mostly Cloudy 1524 m
2017/12/13 18:30 LEBB 131830Z 23009G22KT 200V290 9999 FEW037 BKN050 14/07 Q1018 NOSIG
LEBG - Burgos/Villafría
Actualización: 13/12/2017 19:30
Mostly Cloudy
Mostly Cloudy
 Viento del SSO
Viento: SSO 28 km/h
Temperatura: 6°C
Wind Chill: 2°C
Rocío: 5°C
Humedad: 93%
Barómetro: 1022 hPa
Nubosidad: Mostly Cloudy
Visibilidad: 10 km
Cloud details: Mostly Cloudy 305 m
2017/12/13 18:30 LEBG 131830Z 21015KT 9999 BKN010 06/05 Q1022
LEBA - Córdoba
Actualización: 13/12/2017 19:30
Despejado
Despejado
 Viento del calm
Viento: Calma
Temperatura: 7°C
Rocío: 4°C
Humedad: 81%
Barómetro: 1027 hPa
Nubosidad: Despejado
Visibilidad: 10 km
2017/12/13 18:30 LEBA 131830Z AUTO 00000KT 9999 NCD 07/04 Q1027
 
LEGE - Gerona
Actualización: 13/12/2017 19:30
Few Clouds
Few Clouds
 Viento del varies
Viento: varies 2 km/h
Temperatura: 9°C
Rocío: 0°C
Humedad: 54%
Barómetro: 1018 hPa
Nubosidad: Few Clouds
Visibilidad: 10 km
Cloud details: Few Clouds 1829 m
2017/12/13 18:30 LEGE 131830Z VRB01KT 9999 FEW060 09/M00 Q1018
LEGR - Granada
Actualización: 13/12/2017 19:30
Despejado
Despejado
 Viento del varies
Viento: varies 2 km/h
Temperatura: 5°C
Rocío: 2°C
Humedad: 81%
Barómetro: 1027 hPa
Resumen: Despejado
Visibilidad: greater than 10 km
2017/12/13 18:30 LEGR 131830Z VRB01KT CAVOK 05/02 Q1027
GCHI - Hierro
Actualización: 13/12/2017 19:30
Mostly Cloudy
Mostly Cloudy
 Viento del NE
Viento: NE 41 km/h, Racha: 61 km/h
Temperatura: 20°C
Rocío: 13°C
Humedad: 64%
Barómetro: 1023 hPa
Nubosidad: Mostly Cloudy
Visibilidad: 9 km
Cloud details: Mostly Cloudy 914 m
2017/12/13 18:30 GCHI 131830Z AUTO 04022G33KT 9000 BKN030/// 20/13 Q1023
 
LEIB - Ibiza
Actualización: 13/12/2017 19:30
Despejado
Despejado
 Viento del SO
Viento: SO 31 km/h
Temperatura: 14°C
Rocío: 6°C
Humedad: 59%
Barómetro: 1024 hPa
Resumen: Despejado
Visibilidad: greater than 10 km
2017/12/13 18:30 LEIB 131830Z 23017KT CAVOK 14/06 Q1024 NOSIG
LEJR - Jerez de la Frontera
Actualización: 13/12/2017 19:30
Few Clouds
Few Clouds
 Viento del calm
Viento: Calma
Temperatura: 9°C
Rocío: 6°C
Humedad: 82%
Barómetro: 1028 hPa
Nubosidad: Few Clouds
Visibilidad: 10 km
Cloud details: Few Clouds 914 m
2017/12/13 18:30 LEJR 131830Z 00000KT 9999 FEW030 09/06 Q1028
LECO - A Coruña
Actualización: 13/12/2017 19:38
Mostly Cloudy
Mostly Cloudy
 Viento del O
Viento: O 17 km/h
Temperatura: 15°C
Rocío: 14°C
Humedad: 94%
Barómetro: 1021 hPa
Nubosidad: Mostly Cloudy
Visibilidad: 10 km
Cloud details: Partly Cloudy 335 m
Mostly Cloudy 518 m
Mostly Cloudy 1036 m
2017/12/13 18:38 LECO 131838Z 28009KT 240V330 9999 SCT011 BKN017 BKN034 15/14 Q1021 TEMPO 3000 BR
 
GCLA - La Palma
Actualización: 13/12/2017 19:30
Mostly Cloudy
Mostly Cloudy
 Viento del NNE
Viento: NNE 30 km/h, Racha: 50 km/h
Temperatura: 20°C
Rocío: 12°C
Humedad: 60%
Barómetro: 1025 hPa
Nubosidad: Mostly Cloudy
Visibilidad: 10 km
Cloud details: Mostly Cloudy 1219 m
2017/12/13 18:30 GCLA 131830Z 02016G27KT 340V060 9999 BKN040 20/12 Q1025
GCRR - Lanzarote
Actualización: 13/12/2017 19:30
Few Clouds
Few Clouds
 Viento del NNE
Viento: NNE 26 km/h
Temperatura: 17°C
Rocío: 10°C
Humedad: 64%
Barómetro: 1023 hPa
Nubosidad: Few Clouds
Visibilidad: 10 km
Cloud details: Few Clouds 1219 m
2017/12/13 18:30 GCRR 131830Z 02014KT 9999 FEW040 17/10 Q1023
GCLP - Las Palmas
Actualización: 13/12/2017 19:30
Mostly Cloudy
Mostly Cloudy
 Viento del NNE
Viento: NNE 43 km/h
Temperatura: 18°C
Rocío: 10°C
Humedad: 60%
Barómetro: 1023 hPa
Nubosidad: Mostly Cloudy
Visibilidad: 10 km
Cloud details: Partly Cloudy 1067 m
Mostly Cloudy 1676 m
2017/12/13 18:30 GCLP 131830Z 02023KT 9999 SCT035 BKN055 18/10 Q1023 NOSIG
 
LELN - León
Actualización: 13/12/2017 19:00
Few Clouds
Few Clouds
 Viento del SSO
Viento: SSO 13 km/h
Temperatura: 6°C
Wind Chill: 3°C
Rocío: 6°C
Humedad: 100%
Barómetro: 1021 hPa
Nubosidad: Few Clouds
Visibilidad: 10 km
Cloud details: Few Clouds 274 m
2017/12/13 18:00 LELN 131800Z 20007KT 9999 FEW009 06/06 Q1021
LELO - Logroño
Actualización: 13/12/2017 19:00
Partly Cloudy
Partly Cloudy
 Viento del ESE
Viento: ESE 6 km/h
Temperatura: 5°C
Rocío: 2°C
Humedad: 81%
Barómetro: 1021 hPa
Nubosidad: Partly Cloudy
Visibilidad: 10 km
Cloud details: Few Clouds 1067 m
Partly Cloudy 2286 m
2017/12/13 18:00 LELO 131800Z 11003KT 080V140 9999 FEW035 SCT075 05/02 Q1021
LECV - Madrid/Colmenar
Actualización: 13/12/2017 19:00
Few Clouds
Few Clouds
 Viento del SE
Viento: SE 7 km/h
Temperatura: 4°C
Wind Chill: 2°C
Rocío: 1°C
Humedad: 81%
Barómetro: 1024 hPa
Nubosidad: Few Clouds
Visibilidad: 10 km
Cloud details: Few Clouds 914 m
2017/12/13 18:00 LECV 131800Z 13004KT 9999 FEW030 04/01 Q1024
 
LEMD - Madrid/Barajas
Actualización: 13/12/2017 19:30
Partly Cloudy
Partly Cloudy
 Viento del SE
Viento: SE 6 km/h
Temperatura: 7°C
Rocío: 2°C
Humedad: 71%
Barómetro: 1025 hPa
Nubosidad: Partly Cloudy
Visibilidad: 10 km
Cloud details: Partly Cloudy 1372 m
2017/12/13 18:30 LEMD 131830Z 13003KT 100V160 9999 SCT045 07/02 Q1025 NOSIG
LEVS - Madrid/Cuatro Vientos
Actualización: 13/12/2017 19:30
Despejado
Despejado
 Viento del SSO
Viento: SSO 11 km/h
Temperatura: 8°C
Wind Chill: 6°C
Rocío: 3°C
Humedad: 71%
Barómetro: 1025 hPa
Resumen: Despejado
Visibilidad: greater than 10 km
2017/12/13 18:30 LEVS 131830Z 21006KT CAVOK 08/03 Q1025
LEGT - Madrid/Getafe
Actualización: 13/12/2017 19:00
Despejado
Despejado
 Viento del SSO
Viento: SSO 17 km/h
Temperatura: 7°C
Wind Chill: 4°C
Rocío: 1°C
Humedad: 66%
Barómetro: 1025 hPa
Resumen: Despejado
Visibilidad: greater than 10 km
2017/12/13 18:00 LEGT 131800Z 21009KT CAVOK 07/01 Q1025
 
LETO - Madrid/Torrejón
Actualización: 13/12/2017 19:00
Despejado
Despejado
 Viento del varies
Viento: varies 4 km/h
Temperatura: 6°C
Rocío: 2°C
Humedad: 76%
Barómetro: 1025 hPa
Resumen: Despejado
Visibilidad: greater than 10 km
2017/12/13 18:00 LETO 131800Z VRB02KT CAVOK 06/02 Q1025 NOSIG
LEMG - Málaga
Actualización: 13/12/2017 19:30
Despejado
Despejado
 Viento del NNO
Viento: NNO 2 km/h
Temperatura: 11°C
Rocío: 7°C
Humedad: 77%
Barómetro: 1027 hPa
Resumen: Despejado
Visibilidad: greater than 10 km
2017/12/13 18:30 LEMG 131830Z 33001KT CAVOK 11/07 Q1027 NOSIG
GEML - Melilla
Actualización: 13/12/2017 19:30
Despejado
Despejado
 Viento del varies
Viento: varies 4 km/h
Temperatura: 12°C
Rocío: 9°C
Humedad: 82%
Barómetro: 1027 hPa
Nubosidad: Despejado
Visibilidad: 10 km
2017/12/13 18:30 GEML 131830Z AUTO VRB02KT 9999 NCD 12/09 Q1027
 
LEMH - Mahón
Actualización: 13/12/2017 19:30
Partly Cloudy
Partly Cloudy
 Viento del O
Viento: O 26 km/h
Temperatura: 12°C
Rocío: 5°C
Humedad: 63%
Barómetro: 1023 hPa
Nubosidad: Partly Cloudy
Visibilidad: 10 km
Cloud details: Partly Cloudy 1067 m
2017/12/13 18:30 LEMH 131830Z 26014KT 230V290 9999 SCT035 12/05 Q1023
LEMO - Morón de La Frontera
Actualización: 13/12/2017 19:00
Despejado
Despejado
 Viento del N
Viento: N 6 km/h
Temperatura: 8°C
Rocío: 5°C
Humedad: 82%
Barómetro: 1027 hPa
Resumen: Despejado
Visibilidad: greater than 10 km
2017/12/13 18:00 LEMO 131800Z 36003KT CAVOK 08/05 Q1027 NOSIG
LERI - Murcia/Alcantarilla
Actualización: 13/12/2017 19:00
Despejado
Despejado
 Viento del SO
Viento: SO 9 km/h
Temperatura: 11°C
Rocío: 2°C
Humedad: 54%
Barómetro: 1025 hPa
Resumen: Despejado
Visibilidad: greater than 10 km
2017/12/13 18:00 LERI 131800Z 23005KT CAVOK 11/02 Q1025 NOSIG
 
LELC - Murcia/San Javier
Actualización: 13/12/2017 19:00
Despejado
Despejado
 Viento del ONO
Viento: ONO 9 km/h
Temperatura: 10°C
Wind Chill: 9°C
Rocío: 4°C
Humedad: 67%
Barómetro: 1026 hPa
Resumen: Despejado
Visibilidad: greater than 10 km
2017/12/13 18:00 LELC 131800Z 29005KT CAVOK 10/04 Q1026 NOSIG
LEPA - Palma de Mallorca
Actualización: 13/12/2017 19:30
Few Clouds
Few Clouds
 Viento del OSO
Viento: OSO 26 km/h
Temperatura: 14°C
Rocío: 6°C
Humedad: 59%
Barómetro: 1023 hPa
Nubosidad: Few Clouds
Visibilidad: 10 km
Cloud details: Few Clouds 792 m
2017/12/13 18:30 LEPA 131830Z 25014KT 9999 FEW026 14/06 Q1023 NOSIG
LEPP - Pamplona
Actualización: 13/12/2017 19:30
Mostly Cloudy
Mostly Cloudy
 Viento del S
Viento: S 11 km/h
Temperatura: 7°C
Wind Chill: 5°C
Rocío: 3°C
Humedad: 76%
Barómetro: 1021 hPa
Nubosidad: Mostly Cloudy
Visibilidad: 10 km
Cloud details: Partly Cloudy 975 m
Mostly Cloudy 1676 m
2017/12/13 18:30 LEPP 131830Z 18006KT 150V210 9999 SCT032 BKN055 07/03 Q1021
 
LERS - Reus
Actualización: 13/12/2017 19:30
Despejado
Despejado
 Viento del SO
Viento: SO 11 km/h
Temperatura: 11°C
Rocío: 2°C
Humedad: 54%
Barómetro: 1021 hPa
Resumen: Despejado
Visibilidad: greater than 10 km
2017/12/13 18:30 LERS 131830Z 22006KT CAVOK 11/02 Q1021
LERT - Rota
Actualización: 13/12/2017 19:00
Despejado
Despejado
 Viento del NNE
Viento: NNE 6 km/h
Temperatura: 10°C
Rocío: 7°C
Humedad: 82%
Barómetro: 1027 hPa
Resumen: Despejado
Visibilidad: greater than 10 km
2017/12/13 18:00 LERT 131800Z 03003KT CAVOK 10/07 Q1027 NOSIG
LELL - Sabadell
Actualización: 13/12/2017 19:30
Despejado
Despejado
 Viento del SO
Viento: SO 9 km/h
Temperatura: 9°C
Wind Chill: 7°C
Rocío: 0°C
Humedad: 54%
Barómetro: 1020 hPa
Resumen: Despejado
Visibilidad: greater than 10 km
2017/12/13 18:30 LELL 131830Z AUTO 23005KT CAVOK 09/00 Q1020
 
LESA - Salamanca
Actualización: 13/12/2017 19:30
Mostly Cloudy
Mostly Cloudy
 Viento del S
Viento: S 13 km/h
Temperatura: 7°C
Wind Chill: 5°C
Rocío: 4°C
Humedad: 81%
Barómetro: 1025 hPa
Nubosidad: Mostly Cloudy
Visibilidad: 10 km
Cloud details: Few Clouds 518 m
Mostly Cloudy 792 m
2017/12/13 18:30 LESA 131830Z 19007KT 9999 FEW017 BKN026 07/04 Q1025
LESO - San Sebastián
Actualización: 13/12/2017 19:30
Partly Cloudy
Partly Cloudy
 Viento del OSO
Viento: OSO 13 km/h
Temperatura: 14°C
Rocío: 6°C
Humedad: 59%
Barómetro: 1017 hPa
Nubosidad: Partly Cloudy
Visibilidad: 10 km
Cloud details: Partly Cloudy 1372 m
2017/12/13 18:30 LESO 131830Z 24007KT 200V280 9999 SCT045 14/06 Q1017
LEXJ - Santander
Actualización: 13/12/2017 19:30
Mostly Cloudy
Mostly Cloudy
 Viento del SSO
Viento: SSO 19 km/h
Temperatura: 14°C
Rocío: 10°C
Humedad: 77%
Barómetro: 1017 hPa
Nubosidad: Mostly Cloudy
Visibilidad: 10 km
Cloud details: Few Clouds 1036 m
Mostly Cloudy 1372 m
2017/12/13 18:30 LEXJ 131830Z 21010KT 170V250 9999 FEW034 BKN045 14/10 Q1017
 
LEPA - Palma de Mallorca
Actualización: 13/12/2017 19:30
Few Clouds
Few Clouds
 Viento del OSO
Viento: OSO 26 km/h
Temperatura: 14°C
Rocío: 6°C
Humedad: 59%
Barómetro: 1023 hPa
Nubosidad: Few Clouds
Visibilidad: 10 km
Cloud details: Few Clouds 792 m
2017/12/13 18:30 LEPA 131830Z 25014KT 9999 FEW026 14/06 Q1023 NOSIG
LEPP - Pamplona
Actualización: 13/12/2017 19:30
Mostly Cloudy
Mostly Cloudy
 Viento del S
Viento: S 11 km/h
Temperatura: 7°C
Wind Chill: 5°C
Rocío: 3°C
Humedad: 76%
Barómetro: 1021 hPa
Nubosidad: Mostly Cloudy
Visibilidad: 10 km
Cloud details: Partly Cloudy 975 m
Mostly Cloudy 1676 m
2017/12/13 18:30 LEPP 131830Z 18006KT 150V210 9999 SCT032 BKN055 07/03 Q1021
LEST - Santiago de Compostela
Actualización: 13/12/2017 19:30
Lluvia débil, Cubierto
Lluvia débil, Cubierto
 Viento del OSO
Viento: OSO 15 km/h
Temperatura: 13°C
Rocío: 12°C
Humedad: 94%
Barómetro: 1022 hPa
Resumen: Light Rain
Nubosidad: Cubierto
Visibilidad: 4 km
Cloud details: Mostly Cloudy 30 m
Cubierto 91 m
2017/12/13 18:30 LEST 131830Z 25008KT 200V290 4000 -RA BKN001 OVC003 13/12 Q1022 NOSIG
 
LEZL - Sevilla
Actualización: 13/12/2017 19:30
Despejado
Despejado
 Viento del E
Viento: E 6 km/h
Temperatura: 10°C
Rocío: 7°C
Humedad: 82%
Barómetro: 1027 hPa
Resumen: Despejado
Visibilidad: greater than 10 km
2017/12/13 18:30 LEZL 131830Z 10003KT 070V140 CAVOK 10/07 Q1027 NOSIG
GCXO - Tenerife
Actualización: 13/12/2017 19:30
Mostly Cloudy
Mostly Cloudy
 Viento del NNE
Viento: NNE 17 km/h
Temperatura: 13°C
Rocío: 8°C
Humedad: 72%
Barómetro: 1025 hPa
Nubosidad: Mostly Cloudy
Visibilidad: 10 km
Cloud details: Few Clouds 610 m
Partly Cloudy 914 m
Mostly Cloudy 1067 m
2017/12/13 18:30 GCXO 131830Z 02009KT 320V060 9999 FEW020 SCT030 BKN035 13/08 Q1025 NOSIG
GCTS - Tenerife-Sur
Actualización: 13/12/2017 19:30
Few Clouds
Few Clouds
 Viento del E
Viento: E 48 km/h, Racha: 67 km/h
Temperatura: 18°C
Rocío: 11°C
Humedad: 64%
Barómetro: 1022 hPa
Nubosidad: Few Clouds
Visibilidad: 10 km
Cloud details: Few Clouds 1067 m
2017/12/13 18:30 GCTS 131830Z 08026G36KT 9999 FEW035 18/11 Q1022 NOSIG
 
LEVC - Valencia
Actualización: 13/12/2017 19:30
Despejado
Despejado
 Viento del OSO
Viento: OSO 15 km/h
Temperatura: 12°C
Rocío: 1°C
Humedad: 47%
Barómetro: 1022 hPa
Resumen: Despejado
Visibilidad: greater than 10 km
2017/12/13 18:30 LEVC 131830Z 24008KT CAVOK 12/01 Q1022 NOSIG
LEVD - Valladolid
Actualización: 13/12/2017 19:30
Partly Cloudy
Partly Cloudy
 Viento del OSO
Viento: OSO 24 km/h
Temperatura: 7°C
Wind Chill: 3°C
Rocío: 5°C
Humedad: 87%
Barómetro: 1023 hPa
Nubosidad: Partly Cloudy
Visibilidad: 10 km
Cloud details: Partly Cloudy 335 m
2017/12/13 18:30 LEVD 131830Z 24013KT 9999 SCT011 07/05 Q1023
LEVX - Vigo
Actualización: 13/12/2017 19:30
LLuvia, Niebla, Cubierto
LLuvia, Niebla, Cubierto
 Viento del SSO
Viento: SSO 9 km/h
Temperatura: 12°C
Rocío: 12°C
Humedad: 100%
Barómetro: 1024 hPa
Resumen: LLuvia, Niebla
Nubosidad: Cubierto
Visibilidad: 0 km
Cloud details: Cubierto 30 m
2017/12/13 18:30 LEVX 131830Z 20005KT 160V230 0150 R19/0900U R01/0400U RA FG VV001 12/12 Q1024 NOSIG
 
LEVT - Vitoria
Actualización: 13/12/2017 19:30
Mostly Cloudy
Mostly Cloudy
 Viento del SO
Viento: SO 20 km/h
Temperatura: 9°C
Wind Chill: 6°C
Rocío: 5°C
Humedad: 76%
Barómetro: 1020 hPa
Nubosidad: Mostly Cloudy
Visibilidad: 10 km
Cloud details: Partly Cloudy 671 m
Mostly Cloudy 1676 m
2017/12/13 18:30 LEVT 131830Z 22011KT 9999 SCT022 BKN055 09/05 Q1020
LEZG - Zaragoza
Actualización: 13/12/2017 19:30
Despejado
Despejado
 Viento del ONO
Viento: ONO 15 km/h
Temperatura: 5°C
Wind Chill: 2°C
Rocío: 2°C
Humedad: 81%
Barómetro: 1021 hPa
Resumen: Despejado
Visibilidad: greater than 10 km
2017/12/13 18:30 LEZG 131830Z 30008KT CAVOK 05/02 Q1021

La estación de MeteoMurcia.com, publica sus datos en los siguientes proyectos:

Meteoclimatic www.awekas.at

W3Counter
Web Analytics